Time;durP1;ratioP1;P1;durP2;ratioP2;P2;SDS_P1;SDS_P2;PMS_P1;PMS_P2;Temp;Humidity;BMP_temperature;BMP_pressure;BME280_temperature;BME280_humidity;BME280_pressure;Samples;Min_cycle;Max_cycle;Signal;HPM_P1;HPM_P2
2023/10/12 00:00:52;;;;;;;7.25;5.75;;;23.80;99.90;;;;;;6229616;28;88088;-68
2023/10/12 00:03:59;;;;;;;6.18;5.00;;;23.80;99.90;;;;;;6219587;28;87406;-68
2023/10/12 00:07:09;;;;;;;6.78;5.43;;;23.80;99.90;;;;;;6217677;28;89168;-68
2023/10/12 00:10:21;;;;;;;8.00;5.40;;;23.70;99.90;;;;;;6217761;28;89230;-68
2023/10/12 00:13:28;;;;;;;7.10;5.72;;;23.70;99.90;;;;;;6220557;28;90232;-68
2023/10/12 00:16:30;;;;;;;7.20;5.45;;;23.70;99.90;;;;;;6217487;28;89003;-68
2023/10/12 00:19:32;;;;;;;7.03;5.20;;;23.70;99.90;;;;;;6210007;28;89078;-68
2023/10/12 00:22:37;;;;;;;8.52;5.85;;;23.70;99.90;;;;;;6209119;28;89387;-68
2023/10/12 00:25:45;;;;;;;6.22;5.60;;;23.70;99.90;;;;;;6218267;28;89450;-68
2023/10/12 00:28:50;;;;;;;8.00;5.50;;;23.70;99.90;;;;;;6229646;28;88216;-68
2023/10/12 00:31:55;;;;;;;8.73;5.32;;;23.70;99.90;;;;;;6228879;28;89132;-68
2023/10/12 00:34:58;;;;;;;5.95;5.28;;;23.70;99.90;;;;;;6226019;27;88901;-68
2023/10/12 00:38:10;;;;;;;6.90;5.18;;;23.70;99.90;;;;;;6216622;28;89340;-68
2023/10/12 00:41:14;;;;;;;6.72;5.50;;;23.70;99.90;;;;;;6219620;28;87395;-68
2023/10/12 00:44:18;;;;;;;7.30;5.15;;;23.70;99.90;;;;;;6211176;28;90076;-68
2023/10/12 00:47:29;;;;;;;7.30;5.57;;;23.70;99.90;;;;;;6217527;28;89375;-68
2023/10/12 00:50:32;;;;;;;6.82;5.68;;;23.70;99.90;;;;;;6213532;28;88030;-69
2023/10/12 00:53:37;;;;;;;6.43;5.25;;;23.70;99.90;;;;;;6219815;28;89026;-68
2023/10/12 00:56:43;;;;;;;6.30;5.65;;;23.70;99.90;;;;;;6219114;28;88929;-68
2023/10/12 00:59:46;;;;;;;7.28;5.60;;;23.60;99.90;;;;;;6219491;28;89150;-68
2023/10/12 01:03:07;;;;;;;6.03;5.10;;;23.70;99.90;;;;;;6219111;28;89118;-68
2023/10/12 01:06:20;;;;;;;6.63;5.32;;;23.70;99.90;;;;;;6222519;28;87194;-68
2023/10/12 01:09:26;;;;;;;6.22;5.55;;;23.70;99.90;;;;;;6227121;28;88107;-68
2023/10/12 01:12:30;;;;;;;6.88;5.47;;;23.70;99.90;;;;;;6214679;28;89085;-68
2023/10/12 01:15:32;;;;;;;6.85;5.75;;;23.70;99.90;;;;;;6215002;28;89767;-68
2023/10/12 01:18:34;;;;;;;6.72;5.68;;;23.60;99.90;;;;;;6206949;28;88955;-68
2023/10/12 01:21:37;;;;;;;6.40;5.57;;;23.60;99.90;;;;;;6208520;28;89145;-69
2023/10/12 01:24:44;;;;;;;8.98;5.72;;;23.70;99.90;;;;;;6216318;28;89049;-68
2023/10/12 01:27:47;;;;;;;6.65;5.45;;;23.60;99.90;;;;;;6214862;28;88313;-68
2023/10/12 01:30:49;;;;;;;6.63;5.25;;;23.60;99.90;;;;;;6222632;28;88275;-68
2023/10/12 01:33:54;;;;;;;7.75;5.65;;;23.60;99.90;;;;;;6208173;28;89394;-69
2023/10/12 01:36:58;;;;;;;7.82;5.90;;;23.60;99.90;;;;;;6223530;28;87183;-68
2023/10/12 01:40:14;;;;;;;7.32;5.93;;;23.60;99.90;;;;;;6224102;28;89107;-68
2023/10/12 01:43:17;;;;;;;6.28;4.63;;;23.60;99.90;;;;;;6220275;28;89529;-68
2023/10/12 01:46:21;;;;;;;7.38;5.47;;;23.60;99.90;;;;;;6212497;28;90082;-68
2023/10/12 01:49:24;;;;;;;7.88;5.70;;;23.60;99.90;;;;;;6219642;28;89234;-68
2023/10/12 01:52:26;;;;;;;6.63;5.28;;;23.60;99.90;;;;;;6218745;28;88994;-68
2023/10/12 01:55:30;;;;;;;7.00;4.80;;;23.60;99.90;;;;;;6225922;28;87616;-69
2023/10/12 01:58:35;;;;;;;7.07;5.45;;;23.60;99.90;;;;;;6224918;28;89231;-69
2023/10/12 02:01:42;;;;;;;6.72;5.10;;;23.60;99.90;;;;;;6220482;28;89084;-68
2023/10/12 02:04:45;;;;;;;8.07;5.45;;;23.60;99.90;;;;;;6210455;28;89246;-68
2023/10/12 02:07:47;;;;;;;7.13;5.35;;;23.60;99.90;;;;;;6216290;28;88558;-69
2023/10/12 02:10:58;;;;;;;6.20;5.38;;;23.60;99.90;;;;;;6225260;28;89024;-66
2023/10/12 02:14:01;;;;;;;6.60;5.28;;;23.60;99.90;;;;;;6211602;28;89081;-68
2023/10/12 02:17:05;;;;;;;7.03;4.93;;;23.60;99.90;;;;;;6210414;28;90113;-68
2023/10/12 02:20:11;;;;;;;7.75;5.00;;;23.60;99.90;;;;;;6227642;28;90680;-69
2023/10/12 02:23:13;;;;;;;6.78;5.13;;;23.60;99.90;;;;;;6205607;28;89371;-68
2023/10/12 02:26:28;;;;;;;7.72;5.30;;;23.60;99.90;;;;;;6226068;28;89271;-69
2023/10/12 02:29:35;;;;;;;7.85;5.30;;;23.60;99.90;;;;;;6219695;28;89175;-68
2023/10/12 02:32:46;;;;;;;7.10;5.15;;;23.60;99.90;;;;;;6221042;28;88041;-69
2023/10/12 02:35:49;;;;;;;5.78;5.00;;;23.60;99.90;;;;;;6221638;28;89154;-69
2023/10/12 02:38:52;;;;;;;6.15;5.32;;;23.60;99.90;;;;;;6220451;28;88473;-68
2023/10/12 02:42:10;;;;;;;6.60;4.90;;;23.60;99.90;;;;;;6220887;28;89054;-69
2023/10/12 02:45:18;;;;;;;7.00;4.80;;;23.60;99.90;;;;;;6213246;28;89473;-68
2023/10/12 02:48:23;;;;;;;6.80;5.28;;;23.60;99.90;;;;;;6216068;28;90439;-68
2023/10/12 02:51:25;;;;;;;5.97;5.13;;;23.60;99.90;;;;;;6221340;28;89020;-69
2023/10/12 02:54:38;;;;;;;9.57;5.82;;;23.60;99.90;;;;;;6215258;28;89072;-68
2023/10/12 02:57:45;;;;;;;6.28;5.10;;;23.50;99.90;;;;;;6219801;28;87930;-68
2023/10/12 03:00:58;;;;;;;5.00;4.43;;;23.50;99.90;;;;;;6214734;28;89155;-68
2023/10/12 03:04:00;;;;;;;5.43;4.55;;;23.60;99.90;;;;;;6214898;28;89080;-69
2023/10/12 03:07:11;;;;;;;7.75;5.40;;;23.50;99.90;;;;;;6217971;28;89055;-68
2023/10/12 03:10:24;;;;;;;6.88;5.20;;;23.50;99.90;;;;;;6210219;28;88184;-69
2023/10/12 03:13:34;;;;;;;5.25;4.35;;;23.50;99.90;;;;;;6217626;28;89039;-68
2023/10/12 03:16:41;;;;;;;10.40;5.47;;;23.50;99.90;;;;;;6213930;28;89046;-68
2023/10/12 03:19:48;;;;;;;9.75;5.50;;;23.50;99.90;;;;;;6215113;28;90480;-68
2023/10/12 03:22:52;;;;;;;6.35;4.90;;;23.50;99.90;;;;;;6216357;28;88693;-68
2023/10/12 03:25:54;;;;;;;5.82;4.55;;;23.50;99.90;;;;;;6215795;28;89082;-68
2023/10/12 03:29:08;;;;;;;5.05;4.45;;;23.50;99.90;;;;;;6218376;28;88022;-67
2023/10/12 03:32:11;;;;;;;5.78;4.75;;;23.50;99.90;;;;;;6223464;28;89248;-68
2023/10/12 03:35:22;;;;;;;6.32;4.65;;;23.50;99.90;;;;;;6210401;28;89408;-68
2023/10/12 03:38:25;;;;;;;5.53;4.70;;;23.50;99.90;;;;;;6217010;28;89187;-68
2023/10/12 03:44:52;;;;;;;6.07;4.90;;;23.60;99.90;;;;;;6217809;28;87333;-68
2023/10/12 03:51:24;;;;;;;5.82;4.57;;;23.60;99.90;;;;;;6212007;28;88240;-68
2023/10/12 03:54:29;;;;;;;6.93;5.35;;;23.60;99.90;;;;;;6218531;28;89169;-68
2023/10/12 03:57:39;;;;;;;6.28;5.28;;;23.60;99.90;;;;;;6217977;28;88049;-68
2023/10/12 04:00:47;;;;;;;5.88;5.28;;;23.60;99.90;;;;;;6216233;28;87803;-67
2023/10/12 04:03:58;;;;;;;5.95;5.35;;;23.60;99.90;;;;;;6225855;28;89435;-68
2023/10/12 04:07:16;;;;;;;6.97;5.35;;;23.60;99.90;;;;;;6215809;28;89309;-68
2023/10/12 04:11:01;;;;;;;6.32;5.25;;;23.70;99.90;;;;;;6215178;28;89172;-68
2023/10/12 04:13:56;;;;;;;6.65;5.43;;;23.70;99.90;;;;;;6217432;28;87079;-68
2023/10/12 04:17:07;;;;;;;6.85;5.78;;;23.70;99.90;;;;;;6219687;28;89063;-68
2023/10/12 04:20:17;;;;;;;6.47;5.28;;;23.70;99.90;;;;;;6222948;28;87893;-68
2023/10/12 04:23:45;;;;;;;6.97;6.00;;;23.70;99.90;;;;;;6221803;28;90058;-68
2023/10/12 04:27:06;;;;;;;8.60;6.10;;;23.70;99.90;;;;;;6221592;28;89109;-68
2023/10/12 04:33:29;;;;;;;7.80;5.78;;;23.70;99.90;;;;;;6216460;28;89023;-68
2023/10/12 04:36:37;;;;;;;6.20;5.55;;;23.70;99.90;;;;;;6221410;28;88986;-68
2023/10/12 04:39:49;;;;;;;7.03;5.95;;;23.70;99.90;;;;;;6209164;28;89026;-68
2023/10/12 04:42:53;;;;;;;6.03;5.43;;;23.70;99.90;;;;;;6227714;28;89052;-68
2023/10/12 04:46:26;;;;;;;6.32;5.63;;;23.70;99.90;;;;;;6228043;28;88442;-68
2023/10/12 04:53:08;;;;;;;6.35;5.72;;;23.70;99.90;;;;;;6218061;28;88095;-68
2023/10/12 04:56:10;;;;;;;6.35;5.32;;;23.80;99.90;;;;;;6219122;28;89967;-67
2023/10/12 04:59:17;;;;;;;7.10;5.78;;;23.80;99.90;;;;;;6215606;28;87978;-67
2023/10/12 05:02:28;;;;;;;6.65;5.80;;;23.90;99.90;;;;;;6222166;28;89090;-67
2023/10/12 05:08:54;;;;;;;6.65;5.80;;;23.90;99.90;;;;;;6217672;28;87314;-67
2023/10/12 05:11:58;;;;;;;6.32;5.45;;;23.90;99.90;;;;;;6213303;28;89263;-67
2023/10/12 05:15:11;;;;;;;8.57;6.25;;;24.00;99.90;;;;;;6209264;28;89007;-67
2023/10/12 05:18:17;;;;;;;8.10;6.10;;;23.90;99.90;;;;;;6215503;28;87279;-68
2023/10/12 05:21:21;;;;;;;8.98;6.22;;;24.00;99.90;;;;;;6212577;28;89130;-68
2023/10/12 05:24:23;;;;;;;9.27;6.55;;;24.00;98.70;;;;;;6211621;28;87981;-68
2023/10/12 05:27:28;;;;;;;8.20;5.50;;;23.90;97.40;;;;;;6232311;28;90290;-68
2023/10/12 05:30:31;;;;;;;7.47;5.60;;;24.00;97.00;;;;;;6219124;28;89373;-68
2023/10/12 05:37:07;;;;;;;7.28;5.47;;;24.00;96.80;;;;;;6192016;28;89343;-68
2023/10/12 05:40:11;;;;;;;6.68;5.47;;;24.00;96.80;;;;;;6223869;28;89309;-68
2023/10/12 05:43:21;;;;;;;7.95;6.00;;;24.00;96.70;;;;;;6204802;28;89212;-68
2023/10/12 05:46:29;;;;;;;7.72;6.00;;;24.00;96.70;;;;;;6208444;28;89239;-68
2023/10/12 05:49:33;;;;;;;9.23;6.00;;;24.00;96.70;;;;;;6222822;28;88421;-68
2023/10/12 05:52:39;;;;;;;8.82;6.00;;;24.00;96.70;;;;;;6223205;28;88802;-68
2023/10/12 05:55:41;;;;;;;7.47;5.40;;;24.00;96.60;;;;;;6226398;28;89172;-68
2023/10/12 05:58:43;;;;;;;6.95;5.43;;;24.00;96.60;;;;;;6210851;28;90106;-69
2023/10/12 06:01:48;;;;;;;7.38;5.30;;;24.00;96.50;;;;;;6218578;28;88656;-67
2023/10/12 06:04:50;;;;;;;6.60;5.53;;;24.00;96.50;;;;;;6219178;28;89107;-68
2023/10/12 06:08:00;;;;;;;8.32;5.65;;;24.00;96.50;;;;;;6213443;28;89094;-68
2023/10/12 06:11:03;;;;;;;7.03;5.60;;;24.00;96.50;;;;;;6207407;28;89043;-68
2023/10/12 06:14:06;;;;;;;6.80;5.72;;;24.00;96.50;;;;;;6226461;28;89106;-68
2023/10/12 06:17:21;;;;;;;7.93;5.22;;;24.10;96.60;;;;;;6208232;28;89004;-68
2023/10/12 06:20:36;;;;;;;7.65;5.50;;;24.10;96.60;;;;;;6214861;28;88445;-69
2023/10/12 06:23:39;;;;;;;8.05;5.90;;;24.10;96.70;;;;;;6210648;28;88996;-68
2023/10/12 06:26:44;;;;;;;7.65;5.60;;;24.10;96.70;;;;;;6212041;28;89010;-68
2023/10/12 06:29:46;;;;;;;6.22;5.50;;;24.10;96.80;;;;;;6221728;28;89958;-68
2023/10/12 06:32:48;;;;;;;8.65;5.72;;;24.10;96.80;;;;;;6223709;28;89029;-68
2023/10/12 06:36:03;;;;;;;6.53;5.50;;;24.10;96.80;;;;;;6224195;28;87943;-67
2023/10/12 06:42:29;;;;;;;6.53;5.13;;;24.10;96.80;;;;;;6228772;28;87981;-68
2023/10/12 06:45:31;;;;;;;8.05;5.75;;;24.10;96.70;;;;;;6224324;27;89095;-68
2023/10/12 06:48:44;;;;;;;6.35;5.50;;;24.10;96.70;;;;;;6222624;28;88762;-68
2023/10/12 06:51:53;;;;;;;8.35;5.53;;;24.10;96.70;;;;;;6207924;28;88688;-68
2023/10/12 06:54:59;;;;;;;6.55;5.43;;;24.10;96.70;;;;;;6222073;28;89040;-68
2023/10/12 06:58:02;;;;;;;6.85;5.32;;;24.10;96.70;;;;;;6223916;28;89032;-68
2023/10/12 07:01:18;;;;;;;6.55;5.43;;;24.10;96.70;;;;;;6227070;28;90002;-68
2023/10/12 07:04:27;;;;;;;6.90;5.25;;;24.10;96.70;;;;;;6227014;28;88140;-68
2023/10/12 07:07:36;;;;;;;6.78;5.45;;;24.10;96.70;;;;;;6222900;28;89237;-68
2023/10/12 07:10:50;;;;;;;7.32;5.72;;;24.10;96.70;;;;;;6213336;28;89488;-68
2023/10/12 07:13:53;;;;;;;7.70;5.45;;;24.10;96.80;;;;;;6227908;28;89156;-68
2023/10/12 07:16:56;;;;;;;7.22;5.40;;;24.10;96.70;;;;;;6224560;28;89046;-68
2023/10/12 07:19:59;;;;;;;6.45;5.30;;;24.10;96.80;;;;;;6229439;28;87937;-68
2023/10/12 07:23:05;;;;;;;9.25;5.93;;;24.10;96.80;;;;;;6222400;28;88439;-68
2023/10/12 07:26:12;;;;;;;6.45;5.10;;;24.10;96.80;;;;;;6210944;28;89052;-68
2023/10/12 07:29:19;;;;;;;7.53;5.03;;;24.10;96.80;;;;;;6216469;28;89305;-68
2023/10/12 07:32:31;;;;;;;6.78;5.15;;;24.20;96.90;;;;;;6218801;28;90103;-68
2023/10/12 07:35:34;;;;;;;5.90;5.22;;;24.20;96.80;;;;;;6224615;28;89113;-68
2023/10/12 07:38:36;;;;;;;6.82;5.03;;;24.20;96.80;;;;;;6223494;28;89262;-68
2023/10/12 07:41:53;;;;;;;6.35;5.25;;;24.10;96.80;;;;;;6219489;28;88976;-69
2023/10/12 07:44:59;;;;;;;5.88;5.07;;;24.20;96.80;;;;;;6221347;28;88977;-68
2023/10/12 07:48:09;;;;;;;6.15;5.28;;;24.20;96.90;;;;;;6218775;28;89261;-68
2023/10/12 07:51:24;;;;;;;6.80;5.30;;;24.20;96.90;;;;;;6219550;28;89658;-69
2023/10/12 07:54:46;;;;;;;7.55;5.38;;;24.20;97.00;;;;;;6226021;28;88388;-68
2023/10/12 07:57:50;;;;;;;6.10;5.10;;;24.20;97.00;;;;;;6224005;28;91145;-69
2023/10/12 08:01:19;;;;;;;7.45;5.80;;;24.20;97.00;;;;;;6228508;28;87958;-68
2023/10/12 08:04:29;;;;;;;6.75;5.15;;;24.20;97.00;;;;;;6219991;28;90005;-69
2023/10/12 08:07:55;;;;;;;7.22;5.40;;;24.20;97.00;;;;;;6221148;28;89083;-69
2023/10/12 08:10:59;;;;;;;6.07;4.82;;;24.20;97.00;;;;;;6222496;28;89936;-68
2023/10/12 08:14:19;;;;;;;6.35;5.32;;;24.20;97.00;;;;;;6227644;28;88886;-68
2023/10/12 08:17:33;;;;;;;5.25;4.75;;;24.20;97.10;;;;;;6216777;28;89568;-68
2023/10/12 08:23:57;;;;;;;6.63;5.10;;;24.20;97.00;;;;;;6218223;28;90195;-68
2023/10/12 08:27:00;;;;;;;7.28;5.03;;;24.20;97.00;;;;;;6221423;28;88304;-68
2023/10/12 08:30:22;;;;;;;6.60;4.88;;;24.20;97.10;;;;;;6225763;28;89077;-68
2023/10/12 08:36:57;;;;;;;5.82;4.90;;;24.20;97.10;;;;;;6214887;28;89860;-68
2023/10/12 08:40:07;;;;;;;5.60;5.00;;;24.20;97.20;;;;;;6219096;28;87622;-68
2023/10/12 08:43:09;;;;;;;5.82;4.80;;;24.20;97.20;;;;;;6218763;28;87979;-68
2023/10/12 08:46:20;;;;;;;7.18;5.13;;;24.20;97.20;;;;;;6222668;28;89105;-68
2023/10/12 08:49:43;;;;;;;8.48;5.45;;;24.20;97.20;;;;;;6225075;28;89023;-68
2023/10/12 08:52:50;;;;;;;6.68;4.80;;;24.20;97.20;;;;;;6207180;28;89320;-68
2023/10/12 08:55:53;;;;;;;6.07;4.45;;;24.20;97.30;;;;;;6219511;28;89384;-69
2023/10/12 08:59:00;;;;;;;6.07;4.65;;;24.30;97.30;;;;;;6220817;28;88308;-69
2023/10/12 09:02:18;;;;;;;6.80;5.25;;;24.20;97.30;;;;;;6212951;28;89352;-69
2023/10/12 09:05:25;;;;;;;7.00;4.80;;;24.20;97.30;;;;;;6230917;28;89311;-69
2023/10/12 09:08:46;;;;;;;6.95;5.05;;;24.30;97.30;;;;;;6215986;28;89962;-69
2023/10/12 09:11:48;;;;;;;6.78;4.80;;;24.30;97.30;;;;;;6225451;28;89208;-69
2023/10/12 09:14:54;;;;;;;5.68;4.60;;;24.30;97.30;;;;;;6230097;28;89040;-69
2023/10/12 09:17:59;;;;;;;6.18;4.68;;;24.30;97.30;;;;;;6223149;28;89052;-68
2023/10/12 09:21:15;;;;;;;5.55;4.35;;;24.30;97.30;;;;;;6222481;28;89018;-69
2023/10/12 09:24:28;;;;;;;6.35;4.47;;;24.30;97.30;;;;;;6223263;28;89593;-69
2023/10/12 09:27:36;;;;;;;6.10;4.35;;;24.30;97.20;;;;;;6220411;28;88881;-69
2023/10/12 09:30:44;;;;;;;5.05;4.55;;;24.30;97.20;;;;;;6219697;28;88207;-69
2023/10/12 09:33:54;;;;;;;6.50;4.93;;;24.30;97.30;;;;;;6219773;28;88105;-69
2023/10/12 09:36:56;;;;;;;7.40;4.72;;;24.30;97.30;;;;;;6224537;28;89188;-69
2023/10/12 09:39:58;;;;;;;7.07;4.63;;;24.30;97.40;;;;;;6218947;28;89749;-69
2023/10/12 09:43:06;;;;;;;5.32;4.35;;;24.30;97.40;;;;;;6224479;28;89100;-69
2023/10/12 09:46:13;;;;;;;5.40;4.15;;;24.30;97.40;;;;;;6218746;28;89451;-69
2023/10/12 09:49:21;;;;;;;5.03;4.18;;;24.30;97.50;;;;;;6217490;28;89118;-69
2023/10/12 09:52:41;;;;;;;5.53;4.38;;;24.30;97.50;;;;;;6210517;28;89128;-69
2023/10/12 09:56:02;;;;;;;5.63;4.45;;;24.30;97.60;;;;;;6215930;28;89036;-69
2023/10/12 09:59:13;;;;;;;6.10;4.32;;;24.30;97.60;;;;;;6218583;28;89073;-69
2023/10/12 10:02:27;;;;;;;4.93;4.20;;;24.30;97.60;;;;;;6226733;28;88147;-69
2023/10/12 10:05:52;;;;;;;4.70;3.83;;;24.30;97.70;;;;;;6226936;28;88010;-69
2023/10/12 10:09:24;;;;;;;5.13;4.07;;;24.30;97.70;;;;;;6219846;28;88725;-68
2023/10/12 10:12:28;;;;;;;5.60;4.30;;;24.30;97.70;;;;;;6215189;28;89247;-69
2023/10/12 10:15:36;;;;;;;5.38;4.30;;;24.30;97.70;;;;;;6226308;28;89017;-68
2023/10/12 10:18:46;;;;;;;6.38;4.40;;;24.30;97.80;;;;;;6221352;28;89177;-69
2023/10/12 10:22:03;;;;;;;4.93;4.18;;;24.30;97.90;;;;;;6221782;28;89109;-69
2023/10/12 10:25:17;;;;;;;6.03;4.60;;;24.30;97.90;;;;;;6214452;28;88108;-69
2023/10/12 10:28:23;;;;;;;6.70;4.50;;;24.40;98.00;;;;;;6211625;28;89099;-68
2023/10/12 10:31:27;;;;;;;5.43;4.35;;;24.30;98.10;;;;;;6224402;28;89150;-68
2023/10/12 10:34:34;;;;;;;6.68;4.35;;;24.30;98.10;;;;;;6221250;28;87224;-68
2023/10/12 10:37:57;;;;;;;4.78;4.03;;;24.30;98.20;;;;;;6216234;28;89007;-68
2023/10/12 10:41:17;;;;;;;4.95;4.07;;;24.30;98.20;;;;;;6213442;28;89070;-68
2023/10/12 10:44:21;;;;;;;6.43;4.45;;;24.30;98.30;;;;;;6217579;28;89930;-68
2023/10/12 10:47:27;;;;;;;5.97;4.20;;;24.30;98.40;;;;;;6220384;28;89244;-69
2023/10/12 10:50:29;;;;;;;5.05;3.88;;;24.30;98.40;;;;;;6229691;28;89105;-68
2023/10/12 10:53:36;;;;;;;5.63;3.97;;;24.30;98.50;;;;;;6212695;28;89265;-68
2023/10/12 10:56:47;;;;;;;4.88;3.95;;;24.40;98.50;;;;;;6220790;28;89165;-69
2023/10/12 10:59:49;;;;;;;6.40;3.65;;;24.30;98.30;;;;;;6215572;28;89426;-69
2023/10/12 11:02:52;;;;;;;5.65;4.15;;;24.30;98.20;;;;;;6215214;28;88958;-68
2023/10/12 11:05:54;;;;;;;5.28;4.28;;;24.30;98.30;;;;;;6222462;28;88486;-68
2023/10/12 11:09:05;;;;;;;7.70;4.75;;;24.30;98.30;;;;;;6223131;28;89201;-69
2023/10/12 11:12:08;;;;;;;11.05;5.15;;;24.30;98.40;;;;;;6210026;28;89033;-69
2023/10/12 11:15:11;;;;;;;8.45;5.20;;;24.30;98.50;;;;;;6219270;28;88151;-69
2023/10/12 11:18:17;;;;;;;12.75;5.40;;;24.30;98.60;;;;;;6223576;28;89053;-69
2023/10/12 11:21:19;;;;;;;11.93;5.72;;;24.30;98.60;;;;;;6220216;28;89081;-70
2023/10/12 11:24:24;;;;;;;12.05;5.65;;;24.20;98.70;;;;;;6224679;28;88949;-68
2023/10/12 11:27:32;;;;;;;10.73;5.35;;;24.20;98.80;;;;;;6222178;28;89165;-69
2023/10/12 11:30:36;;;;;;;9.23;5.20;;;24.20;98.90;;;;;;6227963;28;89078;-68
2023/10/12 11:33:38;;;;;;;10.15;5.57;;;24.20;99.00;;;;;;6220733;28;90447;-70
2023/10/12 11:36:40;;;;;;;11.07;5.70;;;24.20;99.10;;;;;;6228335;28;88480;-69
2023/10/12 11:39:45;;;;;;;8.52;5.25;;;24.10;99.20;;;;;;6231767;28;89060;-68
2023/10/12 11:42:53;;;;;;;12.10;6.28;;;24.10;99.30;;;;;;6224127;28;87985;-69
2023/10/12 11:46:01;;;;;;;12.77;5.38;;;24.10;99.50;;;;;;6229739;28;90146;-69
2023/10/12 11:49:04;;;;;;;12.15;5.53;;;24.20;99.40;;;;;;6221892;28;89108;-69
2023/10/12 11:52:14;;;;;;;10.13;5.35;;;24.20;99.40;;;;;;6234333;28;89106;-69
2023/10/12 11:55:20;;;;;;;11.65;5.20;;;24.20;99.50;;;;;;6214643;28;89255;-69
2023/10/12 11:58:23;;;;;;;9.50;5.22;;;24.20;99.50;;;;;;6227898;28;90500;-69
2023/10/12 12:01:27;;;;;;;8.00;4.93;;;24.20;99.60;;;;;;6233902;28;88953;-69
2023/10/12 12:04:39;;;;;;;10.38;5.43;;;24.10;99.50;;;;;;6219110;28;89135;-69
2023/10/12 12:07:40;;;;;;;10.13;5.28;;;24.10;99.50;;;;;;6224570;28;88276;-69
2023/10/12 12:10:54;;;;;;;8.52;5.10;;;24.10;99.60;;;;;;6223204;28;89065;-69
2023/10/12 12:13:55;;;;;;;11.02;5.43;;;24.10;99.60;;;;;;6218110;28;89361;-68
2023/10/12 12:16:57;;;;;;;8.82;5.10;;;24.10;99.60;;;;;;6214132;28;89932;-68
2023/10/12 12:19:59;;;;;;;8.73;5.10;;;24.10;99.70;;;;;;6229705;28;89083;-69
2023/10/12 12:23:04;;;;;;;8.70;5.15;;;24.10;99.70;;;;;;6223399;28;87929;-69
2023/10/12 12:26:09;;;;;;;10.20;5.25;;;24.10;99.80;;;;;;6221744;28;87920;-69
2023/10/12 12:29:11;;;;;;;7.28;4.78;;;24.10;99.80;;;;;;6225671;28;89071;-68
2023/10/12 12:32:13;;;;;;;8.55;5.15;;;24.10;99.80;;;;;;6226458;28;89021;-69
2023/10/12 12:35:16;;;;;;;8.38;5.10;;;24.00;99.80;;;;;;6220440;28;88981;-69
2023/10/12 12:38:28;;;;;;;8.75;5.13;;;24.10;99.80;;;;;;6209639;28;88343;-69
2023/10/12 12:41:34;;;;;;;7.78;4.53;;;24.10;99.80;;;;;;6223630;28;89034;-68
2023/10/12 12:44:36;;;;;;;9.13;5.28;;;24.10;99.80;;;;;;6219726;28;89421;-68
2023/10/12 12:47:38;;;;;;;9.85;5.20;;;24.10;99.80;;;;;;6209307;28;88989;-69
2023/10/12 12:50:41;;;;;;;7.70;4.95;;;24.10;99.80;;;;;;6225813;28;87982;-69
2023/10/12 12:53:46;;;;;;;9.35;5.28;;;24.10;99.80;;;;;;6226287;28;89043;-70
2023/10/12 12:56:53;;;;;;;8.07;4.70;;;24.10;99.80;;;;;;6226849;28;89332;-70
2023/10/12 12:59:55;;;;;;;6.95;4.72;;;24.10;99.80;;;;;;6229830;28;89069;-69
2023/10/12 13:03:00;;;;;;;8.00;4.97;;;24.00;99.80;;;;;;6210157;28;89174;-68
2023/10/12 13:06:07;;;;;;;9.27;5.15;;;24.10;99.80;;;;;;6218901;28;89453;-68
2023/10/12 13:09:28;;;;;;;8.57;4.90;;;24.10;99.80;;;;;;6224236;28;87157;-69
2023/10/12 13:12:32;;;;;;;7.40;5.00;;;24.00;99.90;;;;;;6210771;28;88649;-69
2023/10/12 13:15:41;;;;;;;7.53;5.18;;;24.00;99.80;;;;;;6224839;28;89239;-68
2023/10/12 13:18:46;;;;;;;9.55;4.90;;;24.00;99.80;;;;;;6230380;28;90366;-69
2023/10/12 13:21:49;;;;;;;8.00;5.03;;;24.00;99.80;;;;;;6228728;28;89084;-69
2023/10/12 13:24:56;;;;;;;6.90;4.72;;;24.00;99.80;;;;;;6229013;28;88772;-69
2023/10/12 13:28:00;;;;;;;6.45;4.18;;;24.00;99.80;;;;;;6210666;28;89054;-69
2023/10/12 13:31:04;;;;;;;6.78;4.68;;;24.00;99.80;;;;;;6219784;28;89181;-69
2023/10/12 13:34:07;;;;;;;7.20;4.30;;;24.00;99.90;;;;;;6208156;28;89001;-70
2023/10/12 13:37:09;;;;;;;8.10;4.68;;;24.00;99.90;;;;;;6222078;28;89008;-69
2023/10/12 13:40:15;;;;;;;9.18;5.32;;;24.00;99.90;;;;;;6224826;28;87160;-69
2023/10/12 13:43:21;;;;;;;8.05;4.70;;;24.00;99.90;;;;;;6218756;28;88931;-69
2023/10/12 13:46:23;;;;;;;9.10;5.15;;;24.00;99.90;;;;;;6221345;28;89903;-69
2023/10/12 13:49:26;;;;;;;8.88;5.10;;;24.00;99.90;;;;;;6209103;28;89946;-69
2023/10/12 13:52:27;;;;;;;10.50;5.63;;;24.00;99.90;;;;;;6230284;28;88984;-69
2023/10/12 13:55:29;;;;;;;7.75;4.90;;;24.00;99.90;;;;;;6230020;28;88883;-70
2023/10/12 13:58:34;;;;;;;6.63;4.80;;;24.00;99.90;;;;;;6228160;28;89390;-70
2023/10/12 14:01:37;;;;;;;7.55;4.55;;;24.00;99.90;;;;;;6214446;28;89398;-69
2023/10/12 14:04:40;;;;;;;6.13;4.50;;;24.00;99.90;;;;;;6227447;28;89102;-70
2023/10/12 14:07:42;;;;;;;5.28;4.57;;;24.00;99.90;;;;;;6210300;28;89192;-70
2023/10/12 14:10:45;;;;;;;6.50;4.70;;;23.90;99.90;;;;;;6225252;28;88452;-70
2023/10/12 14:13:50;;;;;;;6.93;4.60;;;24.00;99.90;;;;;;6227076;28;89423;-69
2023/10/12 14:16:52;;;;;;;7.68;4.63;;;24.00;99.90;;;;;;6225108;28;89148;-69
2023/10/12 14:19:58;;;;;;;10.95;5.32;;;23.90;99.90;;;;;;6208182;28;89991;-70
2023/10/12 14:23:06;;;;;;;7.80;4.60;;;23.90;99.90;;;;;;6215804;28;88554;-70
2023/10/12 14:26:11;;;;;;;7.28;4.57;;;24.00;99.90;;;;;;6219486;28;89043;-70
2023/10/12 14:29:18;;;;;;;7.63;4.93;;;23.90;99.90;;;;;;6215782;28;88002;-69
2023/10/12 14:32:20;;;;;;;7.65;5.10;;;23.90;99.90;;;;;;6223387;28;87929;-70
2023/10/12 14:35:25;;;;;;;6.07;4.38;;;24.00;99.90;;;;;;6223052;28;89143;-70
2023/10/12 14:38:30;;;;;;;6.15;4.45;;;23.90;99.90;;;;;;6208366;28;89524;-70
2023/10/12 14:41:35;;;;;;;6.63;4.45;;;23.90;99.90;;;;;;6221407;28;86907;-71
2023/10/12 14:44:38;;;;;;;7.30;4.70;;;24.00;99.90;;;;;;6228799;28;89088;-70
2023/10/12 14:47:40;;;;;;;7.03;4.63;;;23.90;99.90;;;;;;6216369;28;88701;-70
2023/10/12 14:50:45;;;;;;;7.53;4.72;;;23.90;99.90;;;;;;6217526;28;90017;-70
2023/10/12 14:53:47;;;;;;;5.95;4.38;;;24.00;99.90;;;;;;6206042;28;89329;-70
2023/10/12 14:56:49;;;;;;;8.95;4.80;;;23.90;99.90;;;;;;6230267;28;89020;-70
2023/10/12 14:59:53;;;;;;;7.45;4.95;;;24.00;99.90;;;;;;6216086;28;89274;-69
2023/10/12 15:02:57;;;;;;;7.00;5.05;;;24.00;99.90;;;;;;6211783;28;89049;-70
2023/10/12 15:06:03;;;;;;;7.03;4.82;;;23.90;99.90;;;;;;6211654;28;89159;-70
2023/10/12 15:09:10;;;;;;;6.88;4.43;;;23.90;99.90;;;;;;6222703;28;89059;-70
2023/10/12 15:12:13;;;;;;;6.63;4.53;;;23.90;99.90;;;;;;6215941;28;88526;-70
2023/10/12 15:15:18;;;;;;;7.18;4.38;;;23.90;99.90;;;;;;6220328;28;87556;-70
2023/10/12 15:18:23;;;;;;;5.70;4.53;;;23.90;99.90;;;;;;6226238;28;88774;-69
2023/10/12 15:21:25;;;;;;;7.95;4.93;;;23.90;99.90;;;;;;6225385;28;88852;-71
2023/10/12 15:24:27;;;;;;;5.90;4.18;;;23.90;99.90;;;;;;6215853;28;87999;-69
2023/10/12 15:27:30;;;;;;;5.93;4.43;;;23.90;99.90;;;;;;6213739;28;88053;-69
2023/10/12 15:30:34;;;;;;;5.82;4.70;;;23.90;99.90;;;;;;6215873;28;89258;-69
2023/10/12 15:33:37;;;;;;;5.78;4.15;;;23.90;99.90;;;;;;6225340;28;89082;-70
2023/10/12 15:36:39;;;;;;;6.20;4.53;;;23.90;99.90;;;;;;6220664;28;89358;-70
2023/10/12 15:39:41;;;;;;;7.68;4.88;;;23.90;99.90;;;;;;6228331;28;89136;-70
2023/10/12 15:42:44;;;;;;;8.38;5.00;;;23.90;99.90;;;;;;6215891;28;88345;-69
2023/10/12 15:45:47;;;;;;;5.45;4.35;;;23.90;99.90;;;;;;6223723;28;89069;-70
2023/10/12 15:48:49;;;;;;;6.03;4.43;;;23.90;99.90;;;;;;6205226;28;89085;-69
2023/10/12 15:51:51;;;;;;;5.15;3.97;;;23.90;99.90;;;;;;6223867;28;90104;-69
2023/10/12 15:54:54;;;;;;;7.10;4.53;;;23.90;99.90;;;;;;6232271;28;89086;-69
2023/10/12 15:57:57;;;;;;;6.68;4.40;;;23.90;99.90;;;;;;6224405;28;89036;-70
2023/10/12 16:01:03;;;;;;;6.10;4.50;;;23.90;99.90;;;;;;6231382;28;87013;-69
2023/10/12 16:04:08;;;;;;;6.13;4.20;;;23.90;99.90;;;;;;6216597;28;88091;-70
2023/10/12 16:07:17;;;;;;;6.85;4.70;;;23.90;99.90;;;;;;6234740;28;87808;-70
2023/10/12 16:10:21;;;;;;;6.32;4.65;;;23.90;99.90;;;;;;6218625;28;88045;-70
2023/10/12 16:13:25;;;;;;;7.25;4.53;;;23.90;99.90;;;;;;6222104;28;87441;-73
2023/10/12 16:16:30;;;;;;;9.07;5.10;;;23.90;99.90;;;;;;6231823;28;88073;-70
2023/10/12 16:19:34;;;;;;;7.47;4.47;;;23.90;99.90;;;;;;6229652;28;88210;-71
2023/10/12 16:22:41;;;;;;;9.02;4.88;;;23.90;99.90;;;;;;6218184;28;89078;-71
2023/10/12 16:25:46;;;;;;;7.60;4.70;;;23.90;99.90;;;;;;6217059;28;89178;-71
2023/10/12 16:28:51;;;;;;;5.53;4.30;;;23.90;99.90;;;;;;6219385;28;87894;-71
2023/10/12 16:31:58;;;;;;;6.40;4.63;;;24.00;99.90;;;;;;6223774;28;88104;-71
2023/10/12 16:35:01;;;;;;;7.35;4.20;;;23.90;99.90;;;;;;6210936;28;87956;-70
2023/10/12 16:38:05;;;;;;;6.00;4.22;;;23.90;99.90;;;;;;6216231;28;89043;-70
2023/10/12 16:41:08;;;;;;;5.70;4.43;;;24.00;99.90;;;;;;6229328;28;87960;-71